createdAt,value
2019-02-28T00:00:48.482Z,15.27
2019-02-28T00:03:17.108Z,15.33
2019-02-28T00:05:48.498Z,16.73
2019-02-28T00:08:17.240Z,14.53
2019-02-28T00:10:47.413Z,14.53
2019-02-28T00:13:16.347Z,15.97
2019-02-28T00:15:46.617Z,18.37
2019-02-28T00:18:16.468Z,17.27
2019-02-28T00:20:47.789Z,14.87
2019-02-28T00:23:19.244Z,12.60
2019-02-28T00:25:47.063Z,13.60
2019-02-28T00:28:17.957Z,15.07
2019-02-28T00:30:46.593Z,18.03
2019-02-28T00:33:17.917Z,18.40
2019-02-28T00:35:49.175Z,14.87
2019-02-28T00:38:21.877Z,14.20
2019-02-28T00:40:51.449Z,15.30
2019-02-28T00:43:25.125Z,20.00
2019-02-28T00:45:53.480Z,12.97
2019-02-28T00:48:26.765Z,15.53
2019-02-28T00:50:58.446Z,16.77
2019-02-28T00:53:25.803Z,13.43
2019-02-28T00:55:54.842Z,14.40
2019-02-28T00:58:23.396Z,14.13
2019-02-28T01:00:52.093Z,11.97
2019-02-28T01:03:26.584Z,15.17
2019-02-28T01:05:51.498Z,14.60
2019-02-28T01:08:22.106Z,15.57
2019-02-28T01:10:51.660Z,16.00
2019-02-28T01:13:20.833Z,13.43
2019-02-28T01:15:51.232Z,13.80
2019-02-28T01:18:19.838Z,14.43
2019-02-28T01:20:50.724Z,12.67
2019-02-28T01:23:21.662Z,17.50
2019-02-28T01:25:51.458Z,16.03
2019-02-28T01:28:26.593Z,13.77
2019-02-28T01:30:52.150Z,18.57
2019-02-28T01:33:24.877Z,12.57
2019-02-28T01:35:53.177Z,13.27
2019-02-28T01:38:25.226Z,13.50
2019-02-28T01:40:54.656Z,10.80
2019-02-28T01:43:28.386Z,13.80
2019-02-28T01:45:53.586Z,17.90
2019-02-28T01:48:22.866Z,15.10
2019-02-28T01:50:55.437Z,17.73
2019-02-28T01:53:23.994Z,19.43
2019-02-28T01:55:52.575Z,15.17
2019-02-28T01:58:23.931Z,23.20
2019-02-28T02:00:53.669Z,17.93
2019-02-28T02:03:24.385Z,25.37
2019-02-28T02:05:53.026Z,19.43
2019-02-28T02:08:21.598Z,18.47
2019-02-28T02:10:54.978Z,20.10
2019-02-28T02:13:20.704Z,19.93
2019-02-28T02:15:51.400Z,19.83
2019-02-28T02:18:20.701Z,20.70
2019-02-28T02:20:49.430Z,24.87
2019-02-28T02:23:21.864Z,23.20
2019-02-28T02:25:50.523Z,24.93
2019-02-28T02:28:19.236Z,25.00
2019-02-28T02:30:51.015Z,26.60
2019-02-28T02:33:19.100Z,26.67
2019-02-28T02:35:47.730Z,28.63
2019-02-28T02:38:16.362Z,25.43
2019-02-28T02:40:44.957Z,26.27
2019-02-28T02:43:14.339Z,26.27
2019-02-28T02:45:43.817Z,28.57
2019-02-28T02:48:12.586Z,25.90
2019-02-28T02:50:41.219Z,29.90
2019-02-28T02:53:09.776Z,28.37
2019-02-28T02:55:38.870Z,34.40
2019-02-28T02:58:07.485Z,34.70
2019-02-28T03:00:36.383Z,32.27
2019-02-28T03:03:20.367Z,31.90
2019-02-28T03:05:49.164Z,34.20
2019-02-28T03:08:17.766Z,35.27
2019-02-28T03:10:51.947Z,38.07
2019-02-28T03:13:31.938Z,32.97
2019-02-28T03:16:03.282Z,35.37
2019-02-28T03:18:32.476Z,33.57
2019-02-28T03:21:02.325Z,30.43
2019-02-28T03:23:37.918Z,36.53
2019-02-28T03:26:06.857Z,32.40
2019-02-28T03:28:34.743Z,33.37
2019-02-28T03:31:12.171Z,33.37
2019-02-28T03:33:38.136Z,35.37
2019-02-28T03:36:06.720Z,35.53
2019-02-28T03:38:35.402Z,38.10
2019-02-28T03:41:04.412Z,35.37
2019-02-28T03:43:42.662Z,39.97
2019-02-28T03:46:10.370Z,39.67
2019-02-28T03:48:38.583Z,40.57
2019-02-28T03:51:07.308Z,42.83
2019-02-28T03:53:35.962Z,41.83
2019-02-28T03:56:04.653Z,36.23
2019-02-28T03:58:37.636Z,45.93
2019-02-28T04:01:08.785Z,40.17
2019-02-28T04:03:37.795Z,42.57
2019-02-28T04:06:06.476Z,48.40
2019-02-28T04:08:36.017Z,42.27
2019-02-28T04:11:04.748Z,43.43
2019-02-28T04:13:33.342Z,43.17
2019-02-28T04:16:08.666Z,46.40
2019-02-28T04:18:32.324Z,46.97
2019-02-28T04:21:00.913Z,47.67
2019-02-28T04:23:35.499Z,46.83
2019-02-28T04:26:01.371Z,47.97
2019-02-28T04:28:29.973Z,47.80
2019-02-28T04:30:58.552Z,52.50
2019-02-28T04:33:27.189Z,50.67
2019-02-28T04:35:56.824Z,47.47
2019-02-28T04:38:26.142Z,48.97
2019-02-28T04:40:54.702Z,49.00
2019-02-28T04:43:23.294Z,49.00
2019-02-28T04:45:51.864Z,54.13
2019-02-28T04:48:20.794Z,47.93
2019-02-28T04:50:49.636Z,54.87
2019-02-28T04:53:19.163Z,51.40
2019-02-28T04:55:49.068Z,54.47
2019-02-28T04:58:17.744Z,53.97
2019-02-28T05:00:46.362Z,55.13
2019-02-28T05:03:19.670Z,58.90
2019-02-28T05:05:48.272Z,57.07
2019-02-28T05:08:16.832Z,52.07
2019-02-28T05:10:45.398Z,54.43
2019-02-28T05:13:14.348Z,52.57
2019-02-28T05:15:43.670Z,52.37
2019-02-28T05:18:13.724Z,56.97
2019-02-28T05:20:45.901Z,60.63
2019-02-28T05:23:13.914Z,54.83
2019-02-28T05:25:42.472Z,62.33
2019-02-28T05:28:11.077Z,55.50
2019-02-28T05:30:41.492Z,58.90
2019-02-28T05:33:10.486Z,59.83
2019-02-28T05:35:39.159Z,54.20
2019-02-28T05:38:07.775Z,58.47
2019-02-28T05:40:40.201Z,59.07
2019-02-28T05:43:07.192Z,62.57
2019-02-28T05:45:35.754Z,63.90
2019-02-28T05:48:04.646Z,56.13
2019-02-28T05:50:34.140Z,58.77
2019-02-28T05:53:06.289Z,59.57
2019-02-28T05:55:36.303Z,65.07
2019-02-28T05:58:05.063Z,60.70
2019-02-28T06:00:37.075Z,56.10
2019-02-28T06:03:04.090Z,64.03
2019-02-28T06:05:34.278Z,61.37
2019-02-28T06:08:03.598Z,58.37
2019-02-28T06:10:34.747Z,64.03
2019-02-28T06:13:04.909Z,63.77
2019-02-28T06:15:34.270Z,61.67
2019-02-28T06:18:04.187Z,59.90
2019-02-28T06:20:37.141Z,64.97
2019-02-28T06:23:06.369Z,64.27
2019-02-28T06:25:34.981Z,69.43
2019-02-28T06:28:03.720Z,51.13
2019-02-28T06:30:32.420Z,55.60
2019-02-28T06:33:00.985Z,55.07
2019-02-28T06:35:31.407Z,61.37
2019-02-28T06:38:02.819Z,52.33
2019-02-28T06:40:38.793Z,58.07
2019-02-28T06:43:07.351Z,58.60
2019-02-28T06:45:59.819Z,59.23
2019-02-28T06:48:29.925Z,56.37
2019-02-28T06:51:02.258Z,57.60
2019-02-28T06:53:34.517Z,54.23
2019-02-28T06:56:03.005Z,51.97
2019-02-28T06:58:33.304Z,59.40
2019-02-28T07:01:02.109Z,55.00
2019-02-28T07:03:30.753Z,61.53
2019-02-28T07:06:01.205Z,51.90
2019-02-28T07:08:29.558Z,51.47
2019-02-28T07:10:58.268Z,47.03
2019-02-28T07:13:27.164Z,45.27
2019-02-28T07:15:59.031Z,52.63
2019-02-28T07:18:26.259Z,46.37
2019-02-28T07:20:59.542Z,42.77
2019-02-28T07:23:30.193Z,46.10
2019-02-28T07:25:58.986Z,48.90
2019-02-28T07:28:27.639Z,45.37
2019-02-28T07:30:56.381Z,43.87
2019-02-28T07:33:24.998Z,46.90
2019-02-28T07:35:53.832Z,44.83
2019-02-28T07:38:25.671Z,50.87
2019-02-28T07:40:55.827Z,50.07
2019-02-28T07:43:24.381Z,50.47
2019-02-28T07:45:53.374Z,47.47
2019-02-28T07:48:30.032Z,46.53
2019-02-28T07:50:59.585Z,54.60
2019-02-28T07:53:29.156Z,46.10
2019-02-28T07:56:03.870Z,46.43
2019-02-28T07:58:33.486Z,42.63
2019-02-28T08:01:02.450Z,45.57
2019-02-28T08:03:31.140Z,46.80
2019-02-28T08:06:05.673Z,45.87
2019-02-28T08:08:35.069Z,50.87
2019-02-28T08:11:09.763Z,46.93
2019-02-28T08:13:38.669Z,44.67
2019-02-28T08:16:07.545Z,44.50
2019-02-28T08:18:36.212Z,43.50
2019-02-28T08:21:05.389Z,44.53
2019-02-28T08:23:37.443Z,47.40
2019-02-28T08:26:07.108Z,40.40
2019-02-28T08:28:36.862Z,41.33
2019-02-28T08:31:06.700Z,40.87
2019-02-28T08:33:35.384Z,44.77
2019-02-28T08:36:11.649Z,43.20
2019-02-28T08:38:36.209Z,52.80
2019-02-28T08:41:06.440Z,44.77
2019-02-28T08:43:35.174Z,41.97
2019-02-28T08:46:09.709Z,40.90
2019-02-28T08:48:34.957Z,42.93
2019-02-28T08:51:03.717Z,43.40
2019-02-28T08:53:35.086Z,43.93
2019-02-28T08:56:04.722Z,49.40
2019-02-28T08:58:37.590Z,48.70
2019-02-28T09:01:07.135Z,47.33
2019-02-28T09:03:36.143Z,54.70
2019-02-28T09:06:07.156Z,50.63
2019-02-28T09:08:43.470Z,53.10
2019-02-28T09:11:14.877Z,49.20
2019-02-28T09:13:43.740Z,56.60
2019-02-28T09:16:16.386Z,60.50
2019-02-28T09:18:47.811Z,59.33
2019-02-28T09:21:18.269Z,54.10
2019-02-28T09:23:47.186Z,54.17
2019-02-28T09:26:15.900Z,62.77
2019-02-28T09:28:48.868Z,55.23
2019-02-28T09:31:17.528Z,57.37
2019-02-28T09:33:46.656Z,58.30
2019-02-28T09:36:20.773Z,54.00
2019-02-28T09:38:56.852Z,58.77
2019-02-28T09:41:20.759Z,65.27
2019-02-28T09:43:56.910Z,70.70
2019-02-28T09:46:31.232Z,66.33
2019-02-28T09:48:59.979Z,67.57
2019-02-28T09:51:32.128Z,71.27
2019-02-28T09:54:00.587Z,70.53
2019-02-28T09:56:30.185Z,72.60
2019-02-28T09:59:00.265Z,72.50
2019-02-28T10:01:32.908Z,75.43
2019-02-28T10:04:07.753Z,79.80
2019-02-28T10:06:51.493Z,74.83
2019-02-28T10:09:11.061Z,81.43
2019-02-28T10:11:44.216Z,86.67
2019-02-28T10:14:14.414Z,77.13
2019-02-28T10:16:52.731Z,75.97
2019-02-28T10:19:29.402Z,93.00
2019-02-28T10:21:58.170Z,82.27
2019-02-28T10:24:28.441Z,77.23
2019-02-28T10:27:00.005Z,92.30
2019-02-28T10:29:28.803Z,87.23
2019-02-28T10:31:57.319Z,82.67
2019-02-28T10:34:26.400Z,85.80
2019-02-28T10:37:04.372Z,93.40
2019-02-28T10:39:33.044Z,86.50
2019-02-28T10:42:04.997Z,94.50
2019-02-28T10:44:35.988Z,85.67
2019-02-28T10:47:04.819Z,79.17
2019-02-28T10:49:33.559Z,79.12
2019-02-28T10:52:02.231Z,117.67
2019-02-28T10:54:31.187Z,79.55
2019-02-28T10:57:03.063Z,102.30
2019-02-28T10:59:31.093Z,74.83
2019-02-28T11:02:01.857Z,81.05
2019-02-28T11:04:32.867Z,85.35
2019-02-28T11:07:03.142Z,79.87
2019-02-28T11:09:36.219Z,79.67
2019-02-28T11:12:05.285Z,81.65
2019-02-28T11:14:35.554Z,91.70
2019-02-28T11:17:10.461Z,85.03
2019-02-28T11:19:35.676Z,77.17
2019-02-28T11:22:04.891Z,79.25
2019-02-28T11:24:34.633Z,80.32
2019-02-28T11:27:07.414Z,80.65
2019-02-28T11:29:39.123Z,76.42
2019-02-28T11:32:08.572Z,81.75
2019-02-28T11:34:40.073Z,78.92
2019-02-28T11:37:12.754Z,77.58
2019-02-28T11:39:41.522Z,76.80
2019-02-28T11:42:11.797Z,79.50
2019-02-28T11:44:43.549Z,71.00
2019-02-28T11:47:12.162Z,73.85
2019-02-28T11:49:41.418Z,78.87
2019-02-28T11:52:15.974Z,80.85
2019-02-28T11:54:46.457Z,76.22
2019-02-28T11:57:15.145Z,73.62
2019-02-28T11:59:44.601Z,81.40
2019-02-28T12:02:14.677Z,76.12
2019-02-28T12:04:43.287Z,68.85
2019-02-28T12:07:12.500Z,75.97
2019-02-28T12:09:41.330Z,75.72
2019-02-28T12:12:11.284Z,66.92
2019-02-28T12:14:40.216Z,77.87
2019-02-28T12:17:10.609Z,74.55
2019-02-28T12:19:42.074Z,85.40
2019-02-28T12:22:12.089Z,74.22
2019-02-28T12:24:41.582Z,72.55
2019-02-28T12:27:10.305Z,77.17
2019-02-28T12:29:39.071Z,77.25
2019-02-28T12:32:08.760Z,75.67
2019-02-28T12:34:39.825Z,75.72
2019-02-28T12:37:11.620Z,76.90
2019-02-28T12:39:40.353Z,80.53
2019-02-28T12:42:10.710Z,72.08
2019-02-28T12:44:40.100Z,80.28
2019-02-28T12:47:08.860Z,82.25
2019-02-28T12:49:38.540Z,75.22
2019-02-28T12:52:17.272Z,75.78
2019-02-28T12:54:43.283Z,70.80
2019-02-28T12:57:12.322Z,72.60
2019-02-28T12:59:46.015Z,72.40
2019-02-28T13:02:14.863Z,72.72
2019-02-28T13:04:44.608Z,78.60
2019-02-28T13:07:16.961Z,76.00
2019-02-28T13:09:51.551Z,75.25
2019-02-28T13:12:22.910Z,79.10
2019-02-28T13:14:51.631Z,74.03
2019-02-28T13:17:21.913Z,74.03
2019-02-28T13:19:53.220Z,72.03
2019-02-28T13:22:23.379Z,76.75
2019-02-28T13:24:54.244Z,75.35
2019-02-28T13:27:23.211Z,74.17
2019-02-28T13:29:53.496Z,76.90
2019-02-28T13:32:23.866Z,83.62
2019-02-28T13:34:52.707Z,84.67
2019-02-28T13:37:22.868Z,82.40
2019-02-28T13:39:54.605Z,72.67
2019-02-28T13:42:25.007Z,77.65
2019-02-28T13:44:56.674Z,74.62
2019-02-28T13:47:27.732Z,76.05
2019-02-28T13:49:56.496Z,74.42
2019-02-28T13:52:29.755Z,74.00
2019-02-28T13:55:03.125Z,76.20
2019-02-28T13:57:33.950Z,76.10
2019-02-28T14:00:08.007Z,77.15
2019-02-28T14:02:38.682Z,71.40
2019-02-28T14:05:08.283Z,75.35
2019-02-28T14:07:38.162Z,75.78
2019-02-28T14:10:12.130Z,82.27
2019-02-28T14:12:41.091Z,77.97
2019-02-28T14:15:15.436Z,80.97
2019-02-28T14:17:45.634Z,75.25
2019-02-28T14:20:17.189Z,82.30
2019-02-28T14:22:48.544Z,85.40
2019-02-28T14:25:17.391Z,79.58
2019-02-28T14:27:46.589Z,72.40
2019-02-28T14:30:22.817Z,82.57
2019-02-28T14:32:51.120Z,77.20
2019-02-28T14:35:34.064Z,78.67
2019-02-28T14:38:02.787Z,75.05
2019-02-28T14:40:34.016Z,86.42
2019-02-28T14:43:04.242Z,80.55
2019-02-28T14:45:45.470Z,78.15
2019-02-28T14:48:20.739Z,80.47
2019-02-28T14:50:54.122Z,83.15
2019-02-28T14:53:25.743Z,80.75
2019-02-28T14:55:54.646Z,81.00
2019-02-28T14:58:30.476Z,85.00
2019-02-28T15:01:01.543Z,81.50
2019-02-28T15:03:35.911Z,77.03
2019-02-28T15:06:05.221Z,84.67
2019-02-28T15:08:35.655Z,76.40
2019-02-28T15:11:25.367Z,74.70
2019-02-28T15:13:58.995Z,69.70
2019-02-28T15:16:32.406Z,75.87
2019-02-28T15:19:00.694Z,61.73
2019-02-28T15:21:29.699Z,67.00
2019-02-28T15:23:59.213Z,63.38
2019-02-28T15:26:35.485Z,68.85
2019-02-28T15:29:07.505Z,62.38
2019-02-28T15:31:40.469Z,60.48
2019-02-28T15:34:08.297Z,64.72
2019-02-28T15:36:36.996Z,59.23
2019-02-28T15:39:08.157Z,65.05
2019-02-28T15:41:41.274Z,62.70
2019-02-28T15:44:12.943Z,58.90
2019-02-28T15:46:47.374Z,58.70
2019-02-28T15:49:17.366Z,66.72
2019-02-28T15:51:46.102Z,62.10
2019-02-28T15:54:14.969Z,59.13
2019-02-28T15:56:48.498Z,57.85
2019-02-28T15:59:17.239Z,59.37
2019-02-28T16:01:47.473Z,60.75
2019-02-28T16:04:16.273Z,70.87
2019-02-28T16:06:56.446Z,69.50
2019-02-28T16:09:25.411Z,64.75
2019-02-28T16:11:58.573Z,77.12
2019-02-28T16:14:27.214Z,69.12
2019-02-28T16:16:56.788Z,66.80
2019-02-28T16:19:26.964Z,69.20
2019-02-28T16:21:58.203Z,78.83
2019-02-28T16:24:27.546Z,75.50
2019-02-28T16:27:02.821Z,70.13
2019-02-28T16:29:31.692Z,72.67
2019-02-28T16:32:00.416Z,67.57
2019-02-28T16:34:33.799Z,77.73
2019-02-28T16:37:04.890Z,71.67
2019-02-28T16:39:33.453Z,82.43
2019-02-28T16:42:08.293Z,68.87
2019-02-28T16:44:36.836Z,65.83
2019-02-28T16:47:05.921Z,73.73
2019-02-28T16:49:44.450Z,76.43
2019-02-28T16:52:18.758Z,70.30
2019-02-28T16:54:47.586Z,70.60
2019-02-28T16:57:23.783Z,69.63
2019-02-28T16:59:52.633Z,75.77
2019-02-28T17:02:22.143Z,77.70
2019-02-28T17:04:51.791Z,73.53
2019-02-28T17:07:29.166Z,75.27
2019-02-28T17:10:01.654Z,67.23
2019-02-28T17:12:29.742Z,71.63
2019-02-28T17:15:00.789Z,70.63
2019-02-28T17:17:31.173Z,70.13
2019-02-28T17:20:06.374Z,72.53
2019-02-28T17:22:50.322Z,69.30
2019-02-28T17:25:28.172Z,69.90
2019-02-28T17:28:04.291Z,74.47
2019-02-28T17:30:45.873Z,77.83
2019-02-28T17:33:14.727Z,82.87
2019-02-28T17:35:43.382Z,69.83
2019-02-28T17:38:13.563Z,70.63
2019-02-28T17:40:45.700Z,71.17
2019-02-28T17:43:14.520Z,79.13
2019-02-28T17:45:43.546Z,76.10
2019-02-28T17:48:24.459Z,80.20
2019-02-28T17:51:08.596Z,68.17
2019-02-28T17:53:49.087Z,73.93
2019-02-28T17:56:43.949Z,85.00
2019-02-28T17:59:49.075Z,76.27
2019-02-28T18:02:26.149Z,78.87
2019-02-28T18:05:36.442Z,77.87
2019-02-28T18:08:27.842Z,78.40
2019-02-28T18:11:30.864Z,81.20
2019-02-28T18:14:20.160Z,77.37
2019-02-28T18:17:03.705Z,81.67
2019-02-28T18:19:54.369Z,79.07
2019-02-28T18:22:42.447Z,82.10
2019-02-28T18:25:45.416Z,85.43
2019-02-28T18:28:46.647Z,85.67
2019-02-28T18:31:19.201Z,98.77
2019-02-28T18:33:56.870Z,98.27
2019-02-28T18:36:32.831Z,93.13
2019-02-28T18:39:11.456Z,87.13
2019-02-28T18:41:50.748Z,89.77
2019-02-28T18:44:29.255Z,87.70
2019-02-28T18:47:02.866Z,75.23
2019-02-28T18:49:35.092Z,74.60
2019-02-28T18:52:05.638Z,71.90
2019-02-28T18:54:35.868Z,75.80
2019-02-28T18:57:20.212Z,71.83
2019-02-28T18:59:36.341Z,60.53
2019-02-28T19:02:06.747Z,64.37
2019-02-28T19:04:35.729Z,64.80
2019-02-28T19:07:05.914Z,63.53
2019-02-28T19:09:43.834Z,65.40
2019-02-28T19:12:11.196Z,59.37
2019-02-28T19:14:40.405Z,65.20
2019-02-28T19:17:09.412Z,63.97
2019-02-28T19:19:38.050Z,60.90
2019-02-28T19:22:07.021Z,56.63
2019-02-28T19:24:37.637Z,64.80
2019-02-28T19:27:10.505Z,57.87
2019-02-28T19:29:42.016Z,58.33
2019-02-28T19:32:14.100Z,60.73
2019-02-28T19:34:42.869Z,65.47
2019-02-28T19:37:14.028Z,63.47
2019-02-28T19:39:50.831Z,53.73
2019-02-28T19:42:19.435Z,56.63
2019-02-28T19:45:00.250Z,53.33
2019-02-28T19:47:36.864Z,56.83
2019-02-28T19:50:15.411Z,59.40
2019-02-28T19:52:54.136Z,55.53
2019-02-28T19:55:29.463Z,58.03
2019-02-28T19:58:03.033Z,48.93
2019-02-28T20:00:36.577Z,49.77
2019-02-28T20:03:08.942Z,50.93
2019-02-28T20:05:41.835Z,48.13
2019-02-28T20:08:16.823Z,53.67
2019-02-28T20:10:48.751Z,48.33
2019-02-28T20:13:22.692Z,47.70
2019-02-28T20:15:54.671Z,41.83
2019-02-28T20:18:23.948Z,46.60
2019-02-28T20:20:56.871Z,41.03
2019-02-28T20:23:31.631Z,38.80
2019-02-28T20:26:00.235Z,38.67
2019-02-28T20:28:32.014Z,39.50
2019-02-28T20:31:01.307Z,38.00
2019-02-28T20:33:30.023Z,31.67
2019-02-28T20:36:00.560Z,37.67
2019-02-28T20:38:32.650Z,37.43
2019-02-28T20:41:22.449Z,35.40
2019-02-28T20:43:51.685Z,36.43
2019-02-28T20:46:20.317Z,31.63
2019-02-28T20:48:49.873Z,29.07
2019-02-28T20:51:21.368Z,40.73
2019-02-28T20:53:58.647Z,36.83
2019-02-28T20:59:15.712Z,28.30
2019-02-28T21:01:46.302Z,27.30
2019-02-28T21:04:22.477Z,28.93
2019-02-28T21:06:51.354Z,25.50
2019-02-28T21:09:22.813Z,30.07
2019-02-28T21:11:52.078Z,29.67
2019-02-28T21:14:22.306Z,30.03
2019-02-28T21:16:54.093Z,36.33
2019-02-28T21:19:25.544Z,27.03
2019-02-28T21:21:54.517Z,27.17
2019-02-28T21:24:25.266Z,24.10
2019-02-28T21:26:55.374Z,27.93
2019-02-28T21:29:25.454Z,24.97
2019-02-28T21:32:06.155Z,28.23
2019-02-28T21:34:32.464Z,26.20
2019-02-28T21:37:04.896Z,28.03
2019-02-28T21:39:34.181Z,28.37
2019-02-28T21:42:07.322Z,30.80
2019-02-28T21:44:40.528Z,30.97
2019-02-28T21:47:11.094Z,25.90
2019-02-28T21:49:52.785Z,27.67
2019-02-28T21:52:24.461Z,27.43
2019-02-28T21:54:53.427Z,25.23
2019-02-28T21:57:43.002Z,31.67
2019-02-28T22:00:23.041Z,30.33
2019-02-28T22:03:02.286Z,32.57
2019-02-28T22:05:35.739Z,33.87
2019-02-28T22:08:07.861Z,32.60
2019-02-28T22:10:36.432Z,32.00
2019-02-28T22:13:07.268Z,36.20
2019-02-28T22:15:38.743Z,37.03
2019-02-28T22:18:07.453Z,32.27
2019-02-28T22:20:37.564Z,36.50
2019-02-28T22:23:07.838Z,42.43
2019-02-28T22:25:38.128Z,39.73
2019-02-28T22:28:08.383Z,37.50
2019-02-28T22:30:42.686Z,42.00
2019-02-28T22:33:29.803Z,42.77
2019-02-28T22:36:03.021Z,42.23
2019-02-28T22:38:31.677Z,43.40
2019-02-28T22:41:01.913Z,42.03
2019-02-28T22:43:30.554Z,43.73
2019-02-28T22:45:59.200Z,46.60
2019-02-28T22:48:27.954Z,52.37
2019-02-28T22:50:56.655Z,51.37
2019-02-28T22:53:25.364Z,42.77
2019-02-28T22:55:54.054Z,46.27
2019-02-28T22:58:23.778Z,46.10
2019-02-28T23:01:11.599Z,44.57
2019-02-28T23:03:40.424Z,47.63
2019-02-28T23:06:10.768Z,46.20
2019-02-28T23:08:39.439Z,42.60
2019-02-28T23:11:08.149Z,47.20
2019-02-28T23:13:36.800Z,41.53
2019-02-28T23:16:05.849Z,39.70
2019-02-28T23:18:34.492Z,46.60
2019-02-28T23:21:03.197Z,48.20
2019-02-28T23:23:32.223Z,49.00
2019-02-28T23:26:13.675Z,46.03
2019-02-28T23:28:46.639Z,46.53
2019-02-28T23:31:39.223Z,44.70
2019-02-28T23:34:22.611Z,47.50
2019-02-28T23:36:51.237Z,52.77
2019-02-28T23:39:19.823Z,57.13
2019-02-28T23:41:49.429Z,47.03
2019-02-28T23:44:18.139Z,55.17
2019-02-28T23:46:48.235Z,53.80
2019-02-28T23:49:17.195Z,57.10
2019-02-28T23:51:45.762Z,56.97
2019-02-28T23:54:31.105Z,59.00
2019-02-28T23:56:59.690Z,55.33
2019-02-28T23:59:28.446Z,49.27
